createdAt,value
2022-10-19T00:00:31.433Z,12.27
2022-10-19T00:02:57.965Z,12.29
2022-10-19T00:05:24.506Z,12.30
2022-10-19T00:07:51.041Z,12.33
2022-10-19T00:10:17.586Z,12.33
2022-10-19T00:12:44.167Z,12.35
2022-10-19T00:15:12.177Z,12.37
2022-10-19T00:17:38.719Z,12.35
2022-10-19T00:20:06.052Z,12.37
2022-10-19T00:22:33.000Z,12.45
2022-10-19T00:24:59.788Z,12.52
2022-10-19T00:27:26.365Z,12.53
2022-10-19T00:29:52.932Z,12.54
2022-10-19T00:32:20.842Z,12.55
2022-10-19T00:34:47.412Z,12.56
2022-10-19T00:37:14.091Z,12.58
2022-10-19T00:39:40.783Z,12.60
2022-10-19T00:42:10.445Z,12.60
2022-10-19T00:45:05.117Z,12.57
2022-10-19T00:47:34.051Z,12.58
2022-10-19T00:50:00.618Z,12.48
2022-10-19T00:52:28.801Z,12.45
2022-10-19T00:54:57.838Z,12.41
2022-10-19T00:57:28.172Z,12.28
2022-10-19T00:59:55.489Z,12.23
2022-10-19T01:02:22.017Z,12.15
2022-10-19T01:04:52.300Z,12.14
2022-10-19T01:07:19.870Z,12.11
2022-10-19T01:09:46.436Z,12.16
2022-10-19T01:12:25.477Z,12.05
2022-10-19T01:15:06.221Z,11.97
2022-10-19T01:17:44.476Z,11.99
2022-10-19T01:20:42.355Z,11.95
2022-10-19T01:23:37.493Z,12.08
2022-10-19T01:26:16.887Z,12.07
2022-10-19T01:28:54.877Z,12.10
2022-10-19T01:31:29.903Z,12.11
2022-10-19T01:34:03.439Z,12.11
2022-10-19T01:36:40.782Z,12.08
2022-10-19T01:39:11.731Z,12.11
2022-10-19T01:41:47.145Z,12.10
2022-10-19T01:44:18.769Z,12.14
2022-10-19T01:46:51.294Z,12.17
2022-10-19T01:49:25.176Z,12.19
2022-10-19T01:54:34.964Z,12.21
2022-10-19T01:57:04.285Z,12.18
2022-10-19T01:59:33.627Z,12.17
2022-10-19T02:02:03.496Z,12.17
2022-10-19T02:04:31.785Z,12.22
2022-10-19T02:06:59.194Z,12.23
2022-10-19T02:09:25.774Z,12.25
2022-10-19T02:11:57.237Z,12.25
2022-10-19T02:14:27.554Z,12.22
2022-10-19T02:16:59.256Z,12.14
2022-10-19T02:19:27.155Z,12.10
2022-10-19T02:21:54.086Z,12.05
2022-10-19T02:24:20.618Z,12.05
2022-10-19T02:26:47.253Z,12.02
2022-10-19T02:29:15.223Z,12.09
2022-10-19T02:31:42.143Z,12.08
2022-10-19T02:34:09.963Z,12.09
2022-10-19T02:36:38.057Z,12.09
2022-10-19T02:39:06.593Z,12.05
2022-10-19T02:41:38.083Z,12.00
2022-10-19T02:44:10.083Z,11.91
2022-10-19T02:49:09.295Z,11.95
2022-10-19T02:51:38.735Z,11.94
2022-10-19T02:54:07.749Z,11.92
2022-10-19T02:56:35.227Z,11.97
2022-10-19T02:59:01.875Z,11.87
2022-10-19T03:01:28.518Z,11.88
2022-10-19T03:03:55.056Z,11.78
2022-10-19T03:06:21.610Z,11.77
2022-10-19T03:08:49.563Z,11.71
2022-10-19T03:11:16.098Z,11.66
2022-10-19T03:13:42.662Z,11.57
2022-10-19T03:16:11.021Z,11.51
2022-10-19T03:18:37.722Z,11.54
2022-10-19T03:21:06.361Z,11.47
2022-10-19T03:23:33.109Z,11.47
2022-10-19T03:26:01.091Z,11.49
2022-10-19T03:28:27.701Z,11.56
2022-10-19T03:30:54.301Z,11.35
2022-10-19T03:33:20.910Z,11.30
2022-10-19T03:35:47.499Z,11.41
2022-10-19T03:38:14.270Z,11.37
2022-10-19T03:40:40.846Z,11.49
2022-10-19T03:43:08.851Z,11.41
2022-10-19T03:45:35.381Z,11.18
2022-10-19T03:48:01.947Z,11.10
2022-10-19T03:50:28.520Z,11.22
2022-10-19T03:52:55.601Z,11.25
2022-10-19T03:55:22.205Z,11.24
2022-10-19T03:57:48.759Z,11.30
2022-10-19T04:00:16.997Z,11.36
2022-10-19T04:02:43.621Z,11.46
2022-10-19T04:05:10.218Z,11.51
2022-10-19T04:07:36.793Z,11.61
2022-10-19T04:10:03.841Z,11.67
2022-10-19T04:12:30.432Z,11.61
2022-10-19T04:14:57.847Z,11.52
2022-10-19T04:17:26.308Z,11.55
2022-10-19T04:19:52.843Z,11.52
2022-10-19T04:22:19.420Z,11.57
2022-10-19T04:24:45.950Z,11.64
2022-10-19T04:27:12.528Z,11.63
2022-10-19T04:29:39.087Z,11.57
2022-10-19T04:32:06.123Z,11.53
2022-10-19T04:34:36.357Z,11.47
2022-10-19T04:37:05.892Z,11.45
2022-10-19T04:39:32.432Z,11.46
2022-10-19T04:41:59.011Z,11.45
2022-10-19T04:44:25.556Z,11.51
2022-10-19T04:46:52.288Z,11.55
2022-10-19T04:49:20.245Z,11.55
2022-10-19T04:51:48.275Z,11.53
2022-10-19T04:54:14.942Z,11.54
2022-10-19T04:56:41.677Z,11.58
2022-10-19T04:59:09.634Z,11.55
2022-10-19T05:01:36.304Z,11.57
2022-10-19T05:04:03.307Z,11.60
2022-10-19T05:06:31.083Z,11.63
2022-10-19T05:08:59.727Z,11.56
2022-10-19T05:11:26.548Z,11.50
2022-10-19T05:13:53.093Z,11.40
2022-10-19T05:16:21.270Z,11.30
2022-10-19T05:18:48.841Z,11.33
2022-10-19T05:21:16.001Z,11.35
2022-10-19T05:23:42.583Z,11.37
2022-10-19T05:26:12.400Z,11.40
2022-10-19T05:28:39.329Z,11.45
2022-10-19T05:31:08.681Z,11.40
2022-10-19T05:33:35.686Z,11.26
2022-10-19T05:36:14.069Z,11.02
2022-10-19T05:38:40.788Z,10.98
2022-10-19T05:41:07.366Z,10.93
2022-10-19T05:43:35.376Z,10.68
2022-10-19T05:46:06.824Z,10.67
2022-10-19T05:48:34.330Z,10.79
2022-10-19T05:51:00.983Z,10.90
2022-10-19T05:53:27.855Z,11.03
2022-10-19T05:55:54.698Z,11.08
2022-10-19T05:58:21.535Z,10.97
2022-10-19T06:00:53.484Z,10.95
2022-10-19T06:03:20.257Z,11.06
2022-10-19T06:05:46.824Z,11.16
2022-10-19T06:08:13.434Z,11.15
2022-10-19T06:10:39.986Z,11.19
2022-10-19T06:13:06.604Z,11.24
2022-10-19T06:15:33.827Z,11.25
2022-10-19T06:18:03.729Z,11.09
2022-10-19T06:20:30.451Z,10.83
2022-10-19T06:22:57.018Z,10.96
2022-10-19T06:25:23.552Z,11.07
2022-10-19T06:27:50.169Z,11.16
2022-10-19T06:30:17.013Z,11.22
2022-10-19T06:32:43.611Z,11.33
2022-10-19T06:35:11.667Z,11.30
2022-10-19T06:37:38.245Z,11.36
2022-10-19T06:40:07.256Z,11.43
2022-10-19T06:42:34.186Z,11.42
2022-10-19T06:45:00.751Z,11.62
2022-10-19T06:47:27.307Z,11.74
2022-10-19T06:49:53.857Z,11.85
2022-10-19T06:52:21.782Z,11.86
2022-10-19T06:54:48.355Z,11.90
2022-10-19T06:57:14.939Z,12.01
2022-10-19T06:59:41.523Z,11.99
2022-10-19T07:02:10.083Z,11.98
2022-10-19T07:04:36.626Z,12.02
2022-10-19T07:07:03.280Z,11.96
2022-10-19T07:09:31.239Z,11.97
2022-10-19T07:11:57.790Z,12.12
2022-10-19T07:14:24.401Z,12.10
2022-10-19T07:16:51.280Z,12.10
2022-10-19T07:19:17.877Z,11.78
2022-10-19T07:21:44.444Z,11.87
2022-10-19T07:24:11.277Z,12.04
2022-10-19T07:26:39.222Z,12.16
2022-10-19T07:29:05.780Z,12.13
2022-10-19T07:31:32.629Z,12.15
2022-10-19T07:34:01.174Z,12.38
2022-10-19T07:36:29.398Z,12.46
2022-10-19T07:38:55.995Z,12.50
2022-10-19T07:41:24.484Z,12.53
2022-10-19T07:43:53.487Z,12.40
2022-10-19T07:46:22.454Z,11.88
2022-10-19T07:48:49.792Z,12.04
2022-10-19T07:51:17.581Z,12.17
2022-10-19T07:53:44.417Z,12.31
2022-10-19T07:56:12.475Z,12.47
2022-10-19T07:58:39.814Z,12.57
2022-10-19T08:01:09.791Z,12.64
2022-10-19T08:06:23.400Z,12.94
2022-10-19T08:08:52.565Z,13.05
2022-10-19T08:11:21.568Z,13.22
2022-10-19T08:13:48.608Z,13.37
2022-10-19T08:16:25.489Z,13.45
2022-10-19T08:18:53.114Z,12.65
2022-10-19T08:21:19.663Z,13.14
2022-10-19T08:23:46.225Z,13.29
2022-10-19T08:26:12.852Z,13.49
2022-10-19T08:28:39.431Z,13.41
2022-10-19T08:31:13.661Z,13.45
2022-10-19T08:33:41.835Z,13.28
2022-10-19T08:36:10.022Z,12.99
2022-10-19T08:38:37.662Z,12.85
2022-10-19T08:41:11.785Z,13.05
2022-10-19T08:43:48.292Z,13.37
2022-10-19T08:46:22.813Z,13.76
2022-10-19T08:48:52.051Z,13.98
2022-10-19T08:51:18.679Z,13.93
2022-10-19T08:53:52.729Z,14.14
2022-10-19T08:56:49.208Z,14.29
2022-10-19T08:59:21.624Z,14.17
2022-10-19T09:01:54.556Z,14.19
2022-10-19T09:04:26.533Z,14.09
2022-10-19T09:07:03.710Z,14.52
2022-10-19T09:09:31.602Z,14.36
2022-10-19T09:12:03.337Z,14.59
2022-10-19T09:14:32.985Z,14.76
2022-10-19T09:17:02.669Z,15.00
2022-10-19T09:19:30.956Z,14.80
2022-10-19T09:22:00.610Z,14.66
2022-10-19T09:24:29.787Z,15.14
2022-10-19T09:26:58.886Z,15.27
2022-10-19T09:29:32.837Z,15.22
2022-10-19T09:32:01.577Z,15.32
2022-10-19T09:34:33.764Z,15.66
2022-10-19T09:37:00.786Z,15.49
2022-10-19T09:39:29.705Z,15.48
2022-10-19T09:41:58.028Z,15.17
2022-10-19T09:44:25.607Z,15.50
2022-10-19T09:46:55.331Z,15.10
2022-10-19T09:49:39.570Z,14.74
2022-10-19T09:52:06.165Z,13.88
2022-10-19T09:54:35.935Z,14.08
2022-10-19T09:57:03.998Z,14.55
2022-10-19T09:59:35.816Z,14.86
2022-10-19T10:02:16.490Z,15.07
2022-10-19T10:04:54.452Z,15.22
2022-10-19T10:07:34.208Z,15.27
2022-10-19T10:10:01.076Z,14.92
2022-10-19T10:12:27.775Z,15.06
2022-10-19T10:14:54.596Z,15.10
2022-10-19T10:17:24.488Z,15.13
2022-10-19T10:20:17.821Z,15.23
2022-10-19T10:22:52.533Z,14.97
2022-10-19T10:25:19.238Z,14.87
2022-10-19T10:27:55.800Z,14.54
2022-10-19T10:30:22.497Z,14.72
2022-10-19T10:32:51.163Z,14.70
2022-10-19T10:35:23.406Z,14.68
2022-10-19T10:37:50.297Z,14.32
2022-10-19T10:40:23.810Z,14.11
2022-10-19T10:42:52.451Z,13.67
2022-10-19T10:45:23.600Z,13.93
2022-10-19T10:47:50.513Z,14.17
2022-10-19T10:50:22.334Z,14.57
2022-10-19T10:52:58.983Z,14.69
2022-10-19T10:55:25.898Z,14.49
2022-10-19T10:58:02.310Z,14.49
2022-10-19T11:00:29.419Z,14.33
2022-10-19T11:03:01.541Z,14.29
2022-10-19T11:05:33.375Z,14.14
2022-10-19T11:08:03.100Z,14.29
2022-10-19T11:10:33.251Z,14.23
2022-10-19T11:13:08.699Z,14.06
2022-10-19T11:15:40.828Z,14.25
2022-10-19T11:18:16.693Z,14.61
2022-10-19T11:20:53.297Z,14.61
2022-10-19T11:23:33.603Z,14.53
2022-10-19T11:26:12.384Z,14.78
2022-10-19T11:28:54.447Z,14.91
2022-10-19T11:31:22.263Z,14.74
2022-10-19T11:33:59.253Z,14.82
2022-10-19T11:36:46.182Z,14.94
2022-10-19T11:39:28.262Z,14.84
2022-10-19T11:41:59.401Z,14.88
2022-10-19T11:44:38.784Z,15.33
2022-10-19T11:47:19.410Z,15.33
2022-10-19T11:49:59.498Z,15.27
2022-10-19T11:52:38.795Z,14.98
2022-10-19T11:55:16.105Z,15.34
2022-10-19T11:57:51.473Z,15.00
2022-10-19T12:00:40.043Z,15.28
2022-10-19T12:03:24.536Z,15.19
2022-10-19T12:06:08.371Z,15.26
2022-10-19T12:08:51.162Z,15.29
2022-10-19T12:11:29.054Z,15.14
2022-10-19T12:14:00.702Z,15.01
2022-10-19T12:16:37.847Z,15.07
2022-10-19T12:19:07.012Z,15.27
2022-10-19T12:21:36.428Z,15.65
2022-10-19T12:24:11.459Z,15.83
2022-10-19T12:26:39.936Z,15.95
2022-10-19T12:29:13.972Z,15.67
2022-10-19T12:31:41.153Z,15.47
2022-10-19T12:34:20.336Z,15.47
2022-10-19T12:36:52.459Z,15.53
2022-10-19T12:39:26.479Z,15.50
2022-10-19T12:41:59.945Z,15.44
2022-10-19T12:45:20.137Z,15.52
2022-10-19T12:48:19.051Z,15.33
2022-10-19T12:51:14.083Z,15.47
2022-10-19T12:53:44.291Z,15.50
2022-10-19T12:56:17.745Z,15.44
2022-10-19T12:58:52.485Z,15.35
2022-10-19T13:01:24.435Z,15.44
2022-10-19T13:04:05.579Z,15.61
2022-10-19T13:06:35.006Z,15.45
2022-10-19T13:09:04.771Z,15.66
2022-10-19T13:14:06.981Z,15.67
2022-10-19T13:16:58.009Z,15.64
2022-10-19T13:19:25.028Z,15.58
2022-10-19T13:22:00.092Z,15.55
2022-10-19T13:24:30.719Z,15.39
2022-10-19T13:27:37.464Z,14.97
2022-10-19T13:30:44.891Z,15.18
2022-10-19T13:33:44.075Z,15.25
2022-10-19T13:36:11.872Z,15.13
2022-10-19T13:38:39.665Z,15.32
2022-10-19T13:41:11.490Z,15.32
2022-10-19T13:43:39.472Z,15.39
2022-10-19T13:46:11.800Z,15.07
2022-10-19T13:48:59.235Z,15.35
2022-10-19T13:51:34.664Z,15.37
2022-10-19T13:54:13.840Z,15.37
2022-10-19T13:57:04.932Z,15.21
2022-10-19T14:00:11.801Z,15.23
2022-10-19T14:03:06.716Z,15.30
2022-10-19T14:05:56.439Z,15.22
2022-10-19T14:08:38.477Z,15.30
2022-10-19T14:11:05.823Z,15.21
2022-10-19T14:13:32.524Z,15.15
2022-10-19T14:16:00.380Z,14.99
2022-10-19T14:18:30.256Z,15.10
2022-10-19T14:20:58.164Z,14.96
2022-10-19T14:23:26.966Z,14.95
2022-10-19T14:25:55.672Z,14.98
2022-10-19T14:28:23.372Z,15.07
2022-10-19T14:30:56.262Z,14.95
2022-10-19T14:33:23.342Z,14.94
2022-10-19T14:35:52.836Z,15.02
2022-10-19T14:38:22.059Z,15.06
2022-10-19T14:40:48.660Z,15.02
2022-10-19T14:43:21.116Z,14.96
2022-10-19T14:46:03.529Z,14.88
2022-10-19T14:48:30.099Z,14.80
2022-10-19T14:50:58.206Z,14.84
2022-10-19T14:53:35.377Z,14.78
2022-10-19T14:56:07.813Z,14.89
2022-10-19T14:58:39.979Z,14.81
2022-10-19T15:01:07.398Z,14.88
2022-10-19T15:03:34.275Z,14.78
2022-10-19T15:06:05.723Z,14.69
2022-10-19T15:08:36.870Z,14.74
2022-10-19T15:11:05.937Z,14.78
2022-10-19T15:13:35.699Z,14.70
2022-10-19T15:16:02.298Z,14.69
2022-10-19T15:18:48.720Z,14.61
2022-10-19T15:21:19.660Z,14.65
2022-10-19T15:23:47.329Z,14.54
2022-10-19T15:26:18.409Z,14.50
2022-10-19T15:28:45.620Z,14.46
2022-10-19T15:31:18.763Z,14.38
2022-10-19T15:33:48.845Z,14.12
2022-10-19T15:36:17.740Z,14.06
2022-10-19T15:38:46.080Z,14.00
2022-10-19T15:41:18.232Z,14.00
2022-10-19T15:43:47.085Z,13.91
2022-10-19T15:46:25.850Z,13.84
2022-10-19T15:48:55.324Z,13.79
2022-10-19T15:51:44.076Z,13.66
2022-10-19T15:54:11.074Z,13.42
2022-10-19T15:56:39.404Z,13.28
2022-10-19T15:59:11.032Z,13.22
2022-10-19T16:01:37.789Z,13.00
2022-10-19T16:04:04.762Z,12.80
2022-10-19T16:06:33.846Z,12.49
2022-10-19T16:09:02.026Z,12.32
2022-10-19T16:11:29.801Z,12.12
2022-10-19T16:13:56.363Z,11.85
2022-10-19T16:16:25.196Z,11.78
2022-10-19T16:18:52.515Z,11.62
2022-10-19T16:21:21.018Z,11.50
2022-10-19T16:23:47.633Z,11.38
2022-10-19T16:26:16.963Z,11.38
2022-10-19T16:28:44.407Z,11.22
2022-10-19T16:31:11.672Z,11.04
2022-10-19T16:33:38.246Z,10.93
2022-10-19T16:36:05.766Z,10.69
2022-10-19T16:38:32.660Z,10.54
2022-10-19T16:41:00.480Z,10.43
2022-10-19T16:43:28.637Z,10.38
2022-10-19T16:45:55.200Z,10.41
2022-10-19T16:48:24.191Z,10.45
2022-10-19T16:51:18.975Z,10.28
2022-10-19T16:53:45.644Z,10.23
2022-10-19T16:56:13.388Z,10.08
2022-10-19T16:58:42.049Z,10.07
2022-10-19T17:01:09.025Z,10.04
2022-10-19T17:03:37.551Z,9.93
2022-10-19T17:06:04.787Z,9.83
2022-10-19T17:08:37.142Z,9.68
2022-10-19T17:11:12.897Z,9.64
2022-10-19T17:13:41.569Z,9.50
2022-10-19T17:16:09.520Z,9.43
2022-10-19T17:18:36.841Z,9.43
2022-10-19T17:21:05.887Z,9.52
2022-10-19T17:23:32.533Z,9.58
2022-10-19T17:25:59.075Z,9.57
2022-10-19T17:28:27.727Z,9.60
2022-10-19T17:30:55.956Z,9.57
2022-10-19T17:33:22.521Z,9.52
2022-10-19T17:35:49.063Z,9.37
2022-10-19T17:38:15.643Z,9.27
2022-10-19T17:40:42.196Z,9.15
2022-10-19T17:43:08.970Z,8.92
2022-10-19T17:45:35.565Z,8.86
2022-10-19T17:48:03.905Z,8.83
2022-10-19T17:50:30.652Z,8.77
2022-10-19T17:52:57.888Z,8.90
2022-10-19T17:55:24.465Z,8.90
2022-10-19T17:57:51.013Z,8.78
2022-10-19T18:00:17.713Z,8.72
2022-10-19T18:02:44.881Z,8.61
2022-10-19T18:05:13.027Z,8.55
2022-10-19T18:07:39.577Z,8.39
2022-10-19T18:10:06.361Z,8.42
2022-10-19T18:12:32.916Z,8.42
2022-10-19T18:14:59.450Z,8.50
2022-10-19T18:17:27.805Z,8.50
2022-10-19T18:19:54.600Z,8.52
2022-10-19T18:22:22.502Z,8.45
2022-10-19T18:24:49.049Z,8.43
2022-10-19T18:27:15.696Z,8.34
2022-10-19T18:29:42.253Z,8.34
2022-10-19T18:32:08.835Z,8.10
2022-10-19T18:34:35.405Z,8.18
2022-10-19T18:37:01.956Z,8.31
2022-10-19T18:39:29.856Z,8.46
2022-10-19T18:41:56.422Z,8.62
2022-10-19T18:44:26.554Z,8.82
2022-10-19T18:46:55.322Z,9.10
2022-10-19T18:49:21.872Z,9.28
2022-10-19T18:51:52.452Z,9.41
2022-10-19T18:54:21.888Z,9.59
2022-10-19T18:56:49.838Z,9.67
2022-10-19T18:59:16.431Z,9.78
2022-10-19T19:01:43.142Z,9.86
2022-10-19T19:04:10.232Z,9.91
2022-10-19T19:06:37.927Z,9.94
2022-10-19T19:09:07.429Z,9.93
2022-10-19T19:11:37.034Z,9.93
2022-10-19T19:14:07.468Z,9.98
2022-10-19T19:16:35.675Z,9.95
2022-10-19T19:19:02.504Z,9.98
2022-10-19T19:21:30.425Z,9.97
2022-10-19T19:23:59.689Z,9.94
2022-10-19T19:26:29.071Z,10.00
2022-10-19T19:28:55.680Z,10.02
2022-10-19T19:31:23.958Z,10.08
2022-10-19T19:33:50.606Z,10.06
2022-10-19T19:36:18.607Z,10.06
2022-10-19T19:38:45.819Z,10.00
2022-10-19T19:41:14.833Z,9.97
2022-10-19T19:43:42.049Z,10.02
2022-10-19T19:46:12.547Z,10.00
2022-10-19T19:48:42.730Z,9.96
2022-10-19T19:51:10.378Z,9.98
2022-10-19T19:53:37.980Z,10.01
2022-10-19T19:56:06.222Z,9.96
2022-10-19T19:58:32.776Z,9.91
2022-10-19T20:00:59.301Z,9.93
2022-10-19T20:03:25.879Z,9.90
2022-10-19T20:05:53.736Z,9.94
2022-10-19T20:08:20.280Z,9.91
2022-10-19T20:10:46.827Z,9.90
2022-10-19T20:13:13.397Z,9.91
2022-10-19T20:15:39.935Z,9.95
2022-10-19T20:18:06.723Z,9.90
2022-10-19T20:20:33.257Z,9.89
2022-10-19T20:23:01.164Z,9.90
2022-10-19T20:25:27.724Z,9.82
2022-10-19T20:27:54.295Z,9.79
2022-10-19T20:30:20.879Z,9.75
2022-10-19T20:32:47.428Z,9.71
2022-10-19T20:35:14.737Z,9.69
2022-10-19T20:37:41.317Z,9.72
2022-10-19T20:40:11.031Z,9.68
2022-10-19T20:42:37.978Z,9.65
2022-10-19T20:45:05.718Z,9.61
2022-10-19T20:47:32.284Z,9.55
2022-10-19T20:49:58.896Z,9.52
2022-10-19T20:52:25.559Z,9.46
2022-10-19T20:54:52.108Z,9.46
2022-10-19T20:57:20.012Z,9.46
2022-10-19T20:59:46.547Z,9.42
2022-10-19T21:02:13.091Z,9.43
2022-10-19T21:04:39.808Z,9.37
2022-10-19T21:07:06.432Z,9.36
2022-10-19T21:09:33.041Z,9.34
2022-10-19T21:11:59.886Z,9.30
2022-10-19T21:14:29.255Z,9.29
2022-10-19T21:16:56.588Z,9.26
2022-10-19T21:19:25.440Z,9.22
2022-10-19T21:21:53.808Z,9.19
2022-10-19T21:24:22.637Z,9.11
2022-10-19T21:26:49.249Z,9.12
2022-10-19T21:29:17.014Z,9.09
2022-10-19T21:31:48.781Z,9.07
2022-10-19T21:34:18.673Z,9.05
2022-10-19T21:36:45.546Z,8.99
2022-10-19T21:39:12.113Z,9.00
2022-10-19T21:41:38.853Z,9.00
2022-10-19T21:44:05.623Z,8.95
2022-10-19T21:46:32.188Z,8.92
2022-10-19T21:49:00.107Z,8.91
2022-10-19T21:51:33.788Z,8.92
2022-10-19T21:54:00.698Z,8.91
2022-10-19T21:56:27.547Z,8.93
2022-10-19T21:58:54.370Z,8.90
2022-10-19T22:01:24.085Z,8.92
2022-10-19T22:03:55.069Z,8.88
2022-10-19T22:06:23.573Z,8.90
2022-10-19T22:08:50.229Z,8.89
2022-10-19T22:11:16.809Z,8.83
2022-10-19T22:13:43.581Z,8.77
2022-10-19T22:16:13.391Z,8.75
2022-10-19T22:18:40.197Z,8.70
2022-10-19T22:21:09.221Z,8.61
2022-10-19T22:23:37.208Z,8.61
2022-10-19T22:26:12.302Z,8.55
2022-10-19T22:28:38.979Z,8.46
2022-10-19T22:31:05.765Z,8.46
2022-10-19T22:33:32.439Z,8.32
2022-10-19T22:36:00.644Z,8.08
2022-10-19T22:38:28.424Z,8.04
2022-10-19T22:40:56.290Z,8.06
2022-10-19T22:43:22.828Z,7.96
2022-10-19T22:45:50.201Z,7.95
2022-10-19T22:48:17.545Z,8.01
2022-10-19T22:50:44.407Z,7.76
2022-10-19T22:53:11.445Z,7.61
2022-10-19T22:55:38.741Z,7.73
2022-10-19T22:58:08.801Z,7.69
2022-10-19T23:00:36.264Z,7.63
2022-10-19T23:03:02.845Z,7.73
2022-10-19T23:05:29.603Z,7.62
2022-10-19T23:07:56.166Z,7.28
2022-10-19T23:10:23.108Z,7.36
2022-10-19T23:12:49.934Z,7.09
2022-10-19T23:15:18.672Z,6.99
2022-10-19T23:17:45.263Z,6.95
2022-10-19T23:20:12.996Z,7.03
2022-10-19T23:22:40.005Z,7.05
2022-10-19T23:25:07.725Z,6.93
2022-10-19T23:27:34.610Z,6.89
2022-10-19T23:30:02.499Z,6.92
2022-10-19T23:32:30.420Z,6.93
2022-10-19T23:34:57.203Z,6.98
2022-10-19T23:37:23.811Z,6.86
2022-10-19T23:39:50.343Z,6.57
2022-10-19T23:42:16.980Z,6.76
2022-10-19T23:44:43.543Z,6.78
2022-10-19T23:47:10.108Z,6.66
2022-10-19T23:49:38.036Z,6.51
2022-10-19T23:52:04.848Z,6.57
2022-10-19T23:54:31.416Z,6.73
2022-10-19T23:56:58.107Z,6.76
2022-10-19T23:59:24.804Z,6.70
